Time;durP1;ratioP1;P1;durP2;ratioP2;P2;SDS_P1;SDS_P2;PMS_P1;PMS_P2;Temp;Humidity;BMP_temperature;BMP_pressure;BME280_temperature;BME280_humidity;BME280_pressure;Samples;Min_cycle;Max_cycle;Signal;HPM_P1;HPM_P2
2022/03/27 00:00:32;;;;;;;17.30;14.37;;;11.70;28.80;;;;;;20851;6803;121740;-67
2022/03/27 00:02:58;;;;;;;17.30;13.07;;;11.60;28.70;;;;;;20849;6803;118229;-66
2022/03/27 00:05:23;;;;;;;21.07;14.80;;;11.40;28.90;;;;;;20633;6803;315637;-66
2022/03/27 00:07:49;;;;;;;21.17;14.47;;;11.60;29.40;;;;;;20830;6803;118202;-66
2022/03/27 00:10:14;;;;;;;24.43;15.97;;;11.50;29.10;;;;;;20643;6803;301241;-68
2022/03/27 00:12:40;;;;;;;19.63;15.43;;;11.60;29.10;;;;;;20630;6804;293574;-66
2022/03/27 00:15:06;;;;;;;18.90;13.07;;;11.90;29.20;;;;;;20853;6804;117783;-66
2022/03/27 00:17:33;;;;;;;20.30;14.87;;;11.70;29.00;;;;;;20627;6804;278040;-67
2022/03/27 00:19:57;;;;;;;17.80;15.20;;;11.90;29.40;;;;;;20610;6804;311400;-67
2022/03/27 00:22:24;;;;;;;18.98;15.30;;;11.90;29.40;;;;;;20607;6804;341332;-67
2022/03/27 00:24:49;;;;;;;20.20;15.77;;;12.10;28.90;;;;;;20631;6804;336370;-67
2022/03/27 00:27:14;;;;;;;23.12;15.98;;;12.20;28.60;;;;;;20642;6804;306491;-68
2022/03/27 00:29:40;;;;;;;19.17;15.88;;;12.20;28.40;;;;;;20611;6804;306957;-66
2022/03/27 00:32:06;;;;;;;18.63;14.30;;;12.20;28.50;;;;;;20851;6804;118286;-68
2022/03/27 00:34:31;;;;;;;24.30;16.17;;;11.80;28.40;;;;;;20640;6804;307058;-66
2022/03/27 00:36:57;;;;;;;19.23;14.90;;;11.80;28.90;;;;;;20636;6804;310011;-68
2022/03/27 00:39:23;;;;;;;20.10;15.45;;;11.80;28.90;;;;;;20641;6804;304523;-66
2022/03/27 00:41:51;;;;;;;18.50;15.70;;;11.90;28.80;;;;;;20606;6804;277125;-66
2022/03/27 00:44:15;;;;;;;17.43;13.93;;;11.90;28.80;;;;;;20847;6804;118443;-66
2022/03/27 00:46:41;;;;;;;20.97;14.93;;;11.60;28.70;;;;;;20643;6802;276563;-67
2022/03/27 00:49:06;;;;;;;19.73;13.87;;;11.50;29.10;;;;;;20846;6803;117742;-67
2022/03/27 00:51:32;;;;;;;18.47;13.93;;;11.20;29.70;;;;;;20641;6803;308448;-68
2022/03/27 00:53:58;;;;;;;19.77;14.87;;;11.20;29.50;;;;;;20610;6803;311767;-66
2022/03/27 00:56:23;;;;;;;20.40;15.15;;;11.40;29.60;;;;;;20636;6803;310048;-68
2022/03/27 00:58:49;;;;;;;21.43;15.00;;;11.50;29.20;;;;;;20647;6803;326346;-67
2022/03/27 01:01:25;;;;;;;20.42;15.45;;;11.60;29.00;;;;;;20642;6803;282309;-69
2022/03/27 01:03:53;;;;;;;21.40;14.27;;;11.60;28.90;;;;;;20844;6803;118148;-67
2022/03/27 01:06:32;;;;;;;18.70;12.93;;;11.30;29.00;;;;;;20845;6803;118359;-67
2022/03/27 01:11:43;;;;;;;23.80;14.63;;;10.50;29.50;;;;;;20823;6803;121122;-68
2022/03/27 01:14:09;;;;;;;21.93;14.23;;;10.10;29.70;;;;;;20853;6803;117930;-67
2022/03/27 01:16:44;;;;;;;21.87;13.67;;;9.90;30.70;;;;;;20846;6803;117785;-67
2022/03/27 01:19:10;;;;;;;22.53;17.30;;;9.80;31.00;;;;;;20633;6803;306986;-67
2022/03/27 01:21:36;;;;;;;18.57;15.17;;;10.00;30.80;;;;;;20621;6803;306441;-68
2022/03/27 01:24:02;;;;;;;20.27;14.63;;;10.40;30.80;;;;;;20833;6804;117898;-67
2022/03/27 01:26:26;;;;;;;22.80;16.33;;;10.40;30.50;;;;;;20628;6804;306460;-67
2022/03/27 01:28:52;;;;;;;21.83;16.93;;;10.50;30.40;;;;;;20634;6804;276668;-67
2022/03/27 01:31:18;;;;;;;21.83;16.77;;;10.90;30.00;;;;;;20632;6804;277635;-67
2022/03/27 01:33:44;;;;;;;18.80;14.67;;;10.90;30.00;;;;;;20827;6804;117733;-67
2022/03/27 01:36:09;;;;;;;19.23;15.17;;;10.70;30.00;;;;;;20635;6804;281404;-67
2022/03/27 01:38:35;;;;;;;23.15;16.10;;;10.70;30.50;;;;;;20632;6804;310891;-68
2022/03/27 01:41:01;;;;;;;15.63;13.20;;;10.80;30.00;;;;;;20848;6804;118182;-67
2022/03/27 01:43:27;;;;;;;24.97;16.23;;;10.60;30.20;;;;;;20637;6804;307477;-67
2022/03/27 01:45:52;;;;;;;19.42;15.75;;;10.60;30.10;;;;;;20614;6804;332858;-67
2022/03/27 01:48:18;;;;;;;22.05;17.15;;;10.80;30.00;;;;;;20616;6804;312211;-67
2022/03/27 01:50:44;;;;;;;21.23;14.45;;;10.60;29.90;;;;;;20843;6804;117702;-67
2022/03/27 01:53:11;;;;;;;20.53;13.77;;;10.60;30.00;;;;;;20783;6804;117812;-67
2022/03/27 01:55:35;;;;;;;20.37;14.53;;;10.20;30.00;;;;;;20835;6804;117774;-68
2022/03/27 01:58:01;;;;;;;20.10;15.67;;;9.80;31.40;;;;;;20627;6802;306925;-67
2022/03/27 02:00:26;;;;;;;19.62;15.35;;;9.90;32.00;;;;;;20828;6803;117527;-67
2022/03/27 02:02:53;;;;;;;21.80;14.07;;;9.80;32.40;;;;;;20831;6803;117622;-66
2022/03/27 02:05:18;;;;;;;17.33;13.20;;;9.60;31.90;;;;;;20813;6803;119216;-67
2022/03/27 02:07:45;;;;;;;19.90;14.93;;;9.40;32.20;;;;;;20600;6803;305800;-66
2022/03/27 02:10:10;;;;;;;17.17;13.32;;;9.60;32.90;;;;;;20827;6803;121405;-66
2022/03/27 02:12:35;;;;;;;18.00;14.10;;;9.60;32.90;;;;;;20819;6803;122020;-67
2022/03/27 02:15:03;;;;;;;18.00;14.67;;;9.40;32.80;;;;;;20836;6803;118795;-67
2022/03/27 02:17:29;;;;;;;21.93;15.80;;;9.30;33.00;;;;;;20603;6803;306763;-67
2022/03/27 02:19:55;;;;;;;21.02;14.63;;;9.50;33.20;;;;;;20827;6803;117435;-67
2022/03/27 02:22:20;;;;;;;20.97;14.20;;;9.50;32.70;;;;;;20856;6803;117789;-67
2022/03/27 02:24:46;;;;;;;22.65;15.73;;;9.30;32.80;;;;;;20630;6803;304663;-67
2022/03/27 02:27:11;;;;;;;18.35;15.10;;;9.50;33.30;;;;;;20639;6803;306608;-67
2022/03/27 02:29:37;;;;;;;20.10;13.47;;;9.80;33.50;;;;;;20836;6803;120083;-68
2022/03/27 02:32:02;;;;;;;24.33;15.30;;;9.80;33.30;;;;;;20641;6803;306360;-68
2022/03/27 02:34:28;;;;;;;17.20;14.10;;;9.90;33.10;;;;;;20629;6804;338226;-68
2022/03/27 02:36:54;;;;;;;19.90;16.03;;;10.50;31.70;;;;;;20629;6804;308076;-67
2022/03/27 02:39:20;;;;;;;16.93;13.30;;;10.40;31.60;;;;;;20836;6804;118376;-68
2022/03/27 02:41:45;;;;;;;20.02;15.35;;;10.30;31.40;;;;;;20613;6804;276736;-68
2022/03/27 02:44:12;;;;;;;20.83;13.17;;;10.30;31.90;;;;;;20850;6804;117977;-68
2022/03/27 02:46:37;;;;;;;23.83;15.60;;;10.10;31.70;;;;;;20640;6804;282293;-68
2022/03/27 02:49:02;;;;;;;17.23;12.87;;;10.10;31.60;;;;;;20847;6804;118204;-68
2022/03/27 02:51:28;;;;;;;17.73;14.50;;;10.00;32.40;;;;;;20631;6804;276762;-68
2022/03/27 02:53:53;;;;;;;17.13;13.20;;;10.10;32.50;;;;;;20827;6804;122117;-68
2022/03/27 02:56:19;;;;;;;19.70;13.32;;;10.00;32.20;;;;;;20849;6804;123462;-67
2022/03/27 02:58:45;;;;;;;19.55;15.20;;;9.80;32.80;;;;;;20629;6804;314614;-68
2022/03/27 03:01:12;;;;;;;21.50;14.13;;;9.80;33.30;;;;;;20837;6804;117435;-69
2022/03/27 03:03:38;;;;;;;18.50;13.73;;;9.70;32.90;;;;;;20819;6804;119825;-68
2022/03/27 03:06:03;;;;;;;18.37;15.30;;;9.40;33.10;;;;;;20631;6804;281131;-67
2022/03/27 03:08:29;;;;;;;21.47;14.43;;;9.40;33.50;;;;;;20834;6802;118464;-68
2022/03/27 03:10:56;;;;;;;18.90;14.77;;;9.40;33.30;;;;;;20647;6803;311407;-69
2022/03/27 03:13:20;;;;;;;20.48;15.93;;;9.50;33.60;;;;;;20645;6803;336848;-68
2022/03/27 03:15:47;;;;;;;21.75;15.18;;;9.70;33.20;;;;;;20648;6803;309141;-68
2022/03/27 03:18:13;;;;;;;18.87;14.07;;;9.90;33.20;;;;;;20867;6803;117360;-69
2022/03/27 03:20:39;;;;;;;19.07;13.50;;;9.70;33.10;;;;;;20842;6803;118748;-68
2022/03/27 03:23:04;;;;;;;20.10;15.33;;;9.40;33.30;;;;;;20633;6803;280591;-68
2022/03/27 03:25:31;;;;;;;19.70;15.30;;;9.70;33.40;;;;;;20632;6803;307733;-67
2022/03/27 03:27:56;;;;;;;17.17;13.27;;;9.70;33.40;;;;;;20816;6803;118647;-67
2022/03/27 03:30:22;;;;;;;19.00;13.10;;;9.30;33.70;;;;;;20844;6803;117288;-67
2022/03/27 03:32:48;;;;;;;16.63;12.10;;;9.30;33.70;;;;;;20844;6803;118055;-68
2022/03/27 03:35:13;;;;;;;17.30;12.90;;;9.10;34.00;;;;;;20856;6803;117484;-68
2022/03/27 03:37:39;;;;;;;21.77;15.67;;;8.90;34.30;;;;;;20616;6803;309666;-68
2022/03/27 03:40:08;;;;;;;18.37;14.00;;;9.10;34.30;;;;;;20841;6803;117912;-68
2022/03/27 03:42:34;;;;;;;21.23;15.63;;;9.20;34.30;;;;;;20629;6803;277150;-68
2022/03/27 03:45:00;;;;;;;20.37;15.43;;;9.20;34.90;;;;;;20622;6803;342090;-68
2022/03/27 03:47:25;;;;;;;19.83;15.70;;;9.40;33.90;;;;;;20633;6804;296434;-67
2022/03/27 03:49:51;;;;;;;18.17;13.27;;;9.60;33.60;;;;;;20824;6804;118096;-68
2022/03/27 03:52:17;;;;;;;18.70;13.77;;;9.00;34.70;;;;;;20842;6804;118322;-67
2022/03/27 03:54:43;;;;;;;17.87;14.47;;;9.00;34.00;;;;;;20638;6804;281173;-68
2022/03/27 03:57:09;;;;;;;22.93;14.57;;;9.00;34.70;;;;;;20839;6804;117602;-68
2022/03/27 03:59:36;;;;;;;18.10;12.90;;;9.00;34.60;;;;;;20843;6804;117591;-68
2022/03/27 04:02:01;;;;;;;17.07;12.33;;;8.50;34.80;;;;;;20816;6804;123339;-69
2022/03/27 04:04:27;;;;;;;22.30;15.50;;;8.70;35.00;;;;;;20623;6804;310923;-68
2022/03/27 04:06:53;;;;;;;19.43;13.10;;;8.70;35.00;;;;;;20844;6804;118050;-69
2022/03/27 04:09:20;;;;;;;15.90;12.98;;;8.70;34.80;;;;;;20849;6804;117729;-67
2022/03/27 04:11:44;;;;;;;17.83;12.40;;;8.50;35.10;;;;;;20818;6804;118035;-68
2022/03/27 04:14:09;;;;;;;20.95;12.98;;;8.30;35.20;;;;;;20849;6804;118749;-69
2022/03/27 04:16:35;;;;;;;20.15;13.30;;;8.20;35.30;;;;;;20850;6804;118005;-68
2022/03/27 04:19:01;;;;;;;19.37;14.63;;;8.10;35.30;;;;;;20632;6804;282337;-68
2022/03/27 04:21:26;;;;;;;19.85;14.23;;;8.30;35.80;;;;;;20839;6802;117928;-69
2022/03/27 04:23:52;;;;;;;19.47;13.10;;;8.40;35.60;;;;;;20831;6803;123024;-67
2022/03/27 04:26:17;;;;;;;24.58;15.00;;;8.20;35.50;;;;;;20625;6803;340284;-68
2022/03/27 04:28:45;;;;;;;23.97;13.23;;;8.50;35.50;;;;;;20849;6803;117477;-67
2022/03/27 04:31:09;;;;;;;21.07;12.13;;;8.40;35.40;;;;;;20835;6803;118348;-68
2022/03/27 04:33:35;;;;;;;15.98;12.13;;;8.30;35.50;;;;;;20853;6803;123968;-68
2022/03/27 04:36:00;;;;;;;19.37;11.90;;;8.10;35.60;;;;;;20830;6803;117593;-68
2022/03/27 04:38:26;;;;;;;15.77;11.67;;;7.70;35.70;;;;;;20834;6803;117607;-68
2022/03/27 04:40:52;;;;;;;18.70;13.60;;;7.70;35.80;;;;;;20635;6803;280719;-68
2022/03/27 04:43:18;;;;;;;23.87;14.40;;;8.50;35.90;;;;;;20636;6803;337810;-67
2022/03/27 04:45:44;;;;;;;16.17;12.00;;;8.40;35.80;;;;;;20825;6803;118480;-68
2022/03/27 04:48:09;;;;;;;19.50;14.23;;;8.40;35.40;;;;;;20623;6803;312431;-69
2022/03/27 04:50:35;;;;;;;16.93;12.23;;;8.50;35.40;;;;;;20846;6803;120279;-68
2022/03/27 04:53:00;;;;;;;18.23;12.43;;;8.40;35.10;;;;;;20848;6803;117197;-68
2022/03/27 04:55:27;;;;;;;16.37;12.27;;;8.10;35.30;;;;;;20843;6803;117798;-68
2022/03/27 04:57:53;;;;;;;20.20;12.87;;;7.80;35.60;;;;;;20833;6804;144925;-67
2022/03/27 05:00:19;;;;;;;16.43;12.00;;;7.50;36.50;;;;;;20847;6804;117354;-68
2022/03/27 05:02:45;;;;;;;19.52;14.05;;;7.50;36.30;;;;;;20633;6804;335880;-68
2022/03/27 05:05:11;;;;;;;19.77;14.33;;;7.80;36.70;;;;;;20635;6804;277417;-68
2022/03/27 05:07:36;;;;;;;17.43;12.23;;;8.30;36.50;;;;;;20837;6804;119810;-68
2022/03/27 05:10:01;;;;;;;18.97;12.23;;;8.30;36.10;;;;;;20835;6804;117738;-67
2022/03/27 05:12:27;;;;;;;21.77;13.03;;;8.10;36.20;;;;;;20857;6804;117345;-68
2022/03/27 05:14:52;;;;;;;24.85;12.80;;;7.90;36.30;;;;;;20848;6804;123253;-68
2022/03/27 05:17:18;;;;;;;22.70;15.43;;;7.70;36.30;;;;;;20846;6804;120136;-67
2022/03/27 05:19:44;;;;;;;23.80;17.30;;;7.60;36.40;;;;;;20617;6804;282052;-67
2022/03/27 05:22:09;;;;;;;24.37;16.40;;;7.80;36.90;;;;;;20851;6804;118214;-69
2022/03/27 05:24:35;;;;;;;22.48;17.02;;;7.80;36.60;;;;;;20631;6804;336100;-69
2022/03/27 05:27:00;;;;;;;20.27;15.77;;;8.00;37.20;;;;;;20642;6804;336490;-68
2022/03/27 05:29:26;;;;;;;24.17;16.30;;;8.80;35.60;;;;;;20659;6804;277966;-67
2022/03/27 05:31:52;;;;;;;17.90;14.47;;;8.80;35.60;;;;;;20829;6802;143414;-68
2022/03/27 05:34:18;;;;;;;20.75;13.90;;;8.60;36.00;;;;;;20854;6803;117676;-67
2022/03/27 05:36:43;;;;;;;19.93;12.77;;;8.30;35.80;;;;;;20844;6803;117985;-68
2022/03/27 05:39:09;;;;;;;18.77;14.18;;;8.10;36.20;;;;;;20635;6803;307777;-68
2022/03/27 05:41:34;;;;;;;16.50;14.23;;;8.30;36.80;;;;;;20634;6803;306528;-68
2022/03/27 05:44:00;;;;;;;19.50;14.67;;;8.70;36.30;;;;;;20620;6803;310530;-68
2022/03/27 05:46:25;;;;;;;17.63;14.53;;;9.00;35.40;;;;;;20634;6803;277041;-67
2022/03/27 05:48:51;;;;;;;21.30;14.52;;;9.20;35.30;;;;;;20639;6803;289487;-67
2022/03/27 05:51:16;;;;;;;16.23;13.70;;;9.40;34.60;;;;;;20638;6803;309136;-67
2022/03/27 05:53:43;;;;;;;18.27;12.85;;;9.60;34.80;;;;;;20831;6803;117952;-67
2022/03/27 05:56:08;;;;;;;16.83;12.53;;;9.40;35.10;;;;;;20854;6803;117759;-67
2022/03/27 05:58:35;;;;;;;16.27;12.83;;;9.20;35.90;;;;;;20840;6803;121090;-67
2022/03/27 06:00:59;;;;;;;15.90;10.90;;;9.20;35.90;;;;;;20844;6803;123577;-67
2022/03/27 06:03:25;;;;;;;18.37;12.93;;;9.30;36.10;;;;;;20840;6803;120873;-66
2022/03/27 06:05:51;;;;;;;18.67;12.07;;;9.40;36.00;;;;;;20828;6803;117552;-66
2022/03/27 06:08:17;;;;;;;17.73;13.65;;;9.40;36.10;;;;;;20630;6803;306162;-67
2022/03/27 06:10:43;;;;;;;19.73;12.77;;;9.80;35.30;;;;;;20847;6804;117699;-67
2022/03/27 06:13:10;;;;;;;17.20;14.23;;;10.00;34.00;;;;;;20621;6804;310642;-67
2022/03/27 06:15:34;;;;;;;17.02;13.40;;;10.30;33.60;;;;;;20629;6804;311682;-67
2022/03/27 06:17:59;;;;;;;17.03;12.30;;;10.80;33.10;;;;;;20827;6804;117864;-67
2022/03/27 06:20:25;;;;;;;16.83;13.93;;;10.90;33.00;;;;;;20636;6804;307430;-67
2022/03/27 06:22:50;;;;;;;18.60;14.20;;;11.10;32.60;;;;;;20636;6804;278455;-67
2022/03/27 06:25:16;;;;;;;16.37;12.60;;;11.40;31.60;;;;;;20858;6804;121274;-67
2022/03/27 06:27:41;;;;;;;17.17;14.13;;;11.40;31.60;;;;;;20618;6804;310431;-68
2022/03/27 06:30:07;;;;;;;17.15;13.98;;;11.40;31.10;;;;;;20639;6804;307082;-66
2022/03/27 06:32:33;;;;;;;16.80;12.57;;;11.60;30.90;;;;;;20847;6804;118349;-67
2022/03/27 06:34:58;;;;;;;12.90;11.67;;;11.30;31.00;;;;;;20830;6804;117776;-66
2022/03/27 06:37:24;;;;;;;15.00;13.40;;;11.00;31.70;;;;;;20583;6804;310685;-66
2022/03/27 06:39:50;;;;;;;17.73;13.90;;;11.00;31.50;;;;;;20611;6804;306516;-68
2022/03/27 06:42:16;;;;;;;16.27;13.83;;;11.30;31.30;;;;;;20640;6804;277011;-67
2022/03/27 06:44:41;;;;;;;13.87;12.17;;;11.50;30.80;;;;;;20848;6802;117563;-67
2022/03/27 06:47:08;;;;;;;16.53;12.97;;;11.40;31.10;;;;;;20633;6803;306033;-68
2022/03/27 06:49:32;;;;;;;16.53;12.47;;;11.50;31.20;;;;;;20844;6803;117688;-67
2022/03/27 06:51:59;;;;;;;14.83;11.53;;;11.20;31.80;;;;;;20823;6803;123114;-68
2022/03/27 06:54:26;;;;;;;13.43;11.83;;;11.00;32.10;;;;;;20842;6803;117721;-67
2022/03/27 06:56:51;;;;;;;30.27;27.08;;;11.00;32.00;;;;;;20635;6803;277236;-69
2022/03/27 06:59:17;;;;;;;13.70;12.15;;;11.30;32.20;;;;;;20847;6803;117898;-67
2022/03/27 07:04:28;;;;;;;16.73;13.38;;;11.70;31.80;;;;;;20632;6803;335090;-68
2022/03/27 07:06:53;;;;;;;14.47;12.13;;;12.20;31.10;;;;;;20850;6803;117917;-67
2022/03/27 07:09:19;;;;;;;16.23;13.15;;;12.20;31.00;;;;;;20611;6803;306417;-70
2022/03/27 07:11:46;;;;;;;12.77;11.40;;;12.40;30.60;;;;;;20825;6803;141432;-69
2022/03/27 07:14:12;;;;;;;15.93;13.20;;;12.40;30.90;;;;;;20632;6803;307060;-74
2022/03/27 07:16:37;;;;;;;15.63;13.98;;;12.60;30.80;;;;;;20625;6803;337226;-73
2022/03/27 07:19:03;;;;;;;16.30;13.67;;;12.90;30.90;;;;;;20622;6803;288868;-69
2022/03/27 07:21:28;;;;;;;15.80;14.03;;;13.30;30.50;;;;;;20611;6804;312044;-69
2022/03/27 07:23:55;;;;;;;15.23;12.73;;;13.50;30.00;;;;;;20818;6804;117737;-68
2022/03/27 07:26:21;;;;;;;20.47;12.90;;;13.50;30.00;;;;;;20831;6804;117912;-72
2022/03/27 07:28:47;;;;;;;17.30;14.87;;;13.40;30.10;;;;;;20615;6804;306524;-68
2022/03/27 07:31:13;;;;;;;15.73;13.13;;;13.40;30.10;;;;;;20838;6804;121324;-70
2022/03/27 07:33:38;;;;;;;15.80;12.57;;;13.30;30.50;;;;;;20823;6804;117625;-68
2022/03/27 07:36:04;;;;;;;16.30;14.60;;;13.30;30.50;;;;;;20636;6804;277566;-67
2022/03/27 07:38:30;;;;;;;20.15;14.68;;;13.50;30.30;;;;;;20629;6804;336271;-71
2022/03/27 07:40:55;;;;;;;16.87;15.17;;;13.90;30.00;;;;;;20642;6804;276948;-69
2022/03/27 07:43:21;;;;;;;17.98;15.05;;;14.20;29.70;;;;;;20614;6804;278407;-69
2022/03/27 07:45:46;;;;;;;17.33;13.77;;;14.60;29.40;;;;;;20818;6804;117552;-70
2022/03/27 07:48:13;;;;;;;14.90;13.17;;;14.40;29.70;;;;;;20831;6804;117654;-69
2022/03/27 07:50:38;;;;;;;16.62;14.70;;;14.30;29.70;;;;;;20615;6804;335579;-68
2022/03/27 07:53:04;;;;;;;16.70;15.00;;;14.60;29.60;;;;;;20595;6804;278375;-69
2022/03/27 07:55:29;;;;;;;17.85;15.30;;;15.00;29.40;;;;;;20586;6802;336131;-69
2022/03/27 07:57:56;;;;;;;16.07;12.77;;;15.30;29.30;;;;;;20803;6803;117936;-71
2022/03/27 08:00:21;;;;;;;18.40;15.60;;;15.30;29.00;;;;;;20610;6803;312044;-72
2022/03/27 08:02:47;;;;;;;19.20;13.77;;;15.50;28.90;;;;;;20831;6803;117775;-70
2022/03/27 08:05:12;;;;;;;17.17;14.98;;;15.50;29.10;;;;;;20624;6803;335469;-71
2022/03/27 08:07:38;;;;;;;17.05;14.90;;;15.60;29.20;;;;;;20604;6803;277237;-70
2022/03/27 08:10:04;;;;;;;16.80;15.00;;;16.10;29.00;;;;;;20608;6803;277355;-73
2022/03/27 08:12:30;;;;;;;15.23;13.63;;;16.10;29.00;;;;;;20827;6803;117325;-71
2022/03/27 08:14:55;;;;;;;16.60;14.48;;;16.10;28.90;;;;;;20612;6803;300856;-70
2022/03/27 08:17:21;;;;;;;18.33;14.98;;;16.30;28.50;;;;;;20615;6803;310514;-69
2022/03/27 08:19:47;;;;;;;19.40;14.60;;;16.60;28.30;;;;;;20810;6803;119581;-71
2022/03/27 08:22:12;;;;;;;18.17;15.27;;;16.70;28.40;;;;;;20610;6803;278116;-72
2022/03/27 08:24:38;;;;;;;17.23;15.03;;;16.80;28.70;;;;;;20621;6803;306541;-69
2022/03/27 08:27:06;;;;;;;18.50;14.75;;;17.10;28.90;;;;;;20842;6803;117831;-70
2022/03/27 08:29:30;;;;;;;15.47;13.83;;;17.10;28.40;;;;;;20836;6803;118313;-74
2022/03/27 08:31:56;;;;;;;15.77;13.43;;;16.90;28.70;;;;;;20821;6803;118223;-72
2022/03/27 08:34:23;;;;;;;20.60;15.57;;;16.90;28.70;;;;;;20634;6804;277647;-68
2022/03/27 08:36:47;;;;;;;16.80;15.00;;;17.20;28.00;;;;;;20618;6804;281611;-68
2022/03/27 08:39:12;;;;;;;17.13;15.40;;;17.60;27.60;;;;;;20629;6804;276784;-70
2022/03/27 08:41:41;;;;;;;17.03;14.53;;;18.00;27.50;;;;;;20603;6804;312699;-69
2022/03/27 08:44:07;;;;;;;17.75;16.05;;;18.30;27.40;;;;;;20599;6804;336790;-71
2022/03/27 08:46:32;;;;;;;19.27;14.23;;;18.50;27.50;;;;;;20830;6804;123347;-70
2022/03/27 08:48:58;;;;;;;16.87;14.13;;;18.50;27.70;;;;;;20839;6804;117486;-71
2022/03/27 08:51:27;;;;;;;16.47;13.93;;;18.30;28.10;;;;;;20783;6804;118446;-75
2022/03/27 08:53:59;;;;;;;16.03;14.03;;;18.20;28.40;;;;;;20802;6804;117949;-76
2022/03/27 08:56:26;;;;;;;17.47;14.63;;;18.10;28.20;;;;;;20581;6804;277147;-77
2022/03/27 08:58:51;;;;;;;17.20;14.90;;;18.40;28.20;;;;;;20618;6804;277019;-80
2022/03/27 09:01:17;;;;;;;16.77;14.60;;;18.80;27.80;;;;;;20613;6804;276841;-67
2022/03/27 09:03:42;;;;;;;18.30;14.33;;;19.20;27.40;;;;;;20809;6804;117524;-71
2022/03/27 09:06:08;;;;;;;18.50;15.07;;;19.40;27.40;;;;;;20830;6802;117508;-74
2022/03/27 09:08:34;;;;;;;20.13;17.70;;;19.30;27.60;;;;;;20837;6803;119543;-69
2022/03/27 09:11:01;;;;;;;19.30;15.05;;;19.10;27.80;;;;;;20622;6803;289190;-72
2022/03/27 09:13:25;;;;;;;16.83;15.13;;;19.40;27.70;;;;;;20618;6803;285401;-73
2022/03/27 09:16:01;;;;;;;17.20;15.00;;;20.10;26.80;;;;;;20611;6803;280879;-73
2022/03/27 09:18:51;;;;;;;18.93;14.30;;;20.00;26.70;;;;;;20833;6803;117396;-73
2022/03/27 09:21:18;;;;;;;18.60;13.57;;;20.00;26.60;;;;;;20832;6803;117509;-73
2022/03/27 09:23:44;;;;;;;15.50;13.43;;;19.70;26.80;;;;;;20813;6803;117470;-73
2022/03/27 09:26:16;;;;;;;19.30;14.80;;;19.50;27.50;;;;;;20633;6803;335548;-72
2022/03/27 09:28:40;;;;;;;17.60;15.23;;;19.80;27.10;;;;;;20624;6803;277576;-72
2022/03/27 09:31:13;;;;;;;17.40;13.50;;;19.80;27.10;;;;;;20834;6803;117855;-72
2022/03/27 09:33:55;;;;;;;17.10;14.60;;;20.00;27.50;;;;;;20613;6803;281180;-73
2022/03/27 09:36:30;;;;;;;17.63;15.50;;;20.00;26.90;;;;;;20632;6803;307463;-72
2022/03/27 09:38:59;;;;;;;15.03;13.40;;;20.30;27.30;;;;;;20847;6803;118177;-72
2022/03/27 09:41:38;;;;;;;18.20;13.73;;;20.10;27.20;;;;;;20847;6803;117919;-72
2022/03/27 09:44:11;;;;;;;15.70;12.97;;;20.10;27.20;;;;;;20847;6804;123859;-72
2022/03/27 09:47:07;;;;;;;17.50;13.97;;;19.80;27.30;;;;;;20848;6804;120380;-72
2022/03/27 09:49:37;;;;;;;17.03;14.90;;;19.80;27.30;;;;;;20636;6804;310452;-73
2022/03/27 09:52:11;;;;;;;16.67;13.57;;;20.10;27.10;;;;;;20827;6804;118029;-73
2022/03/27 09:54:49;;;;;;;16.43;14.03;;;20.20;27.10;;;;;;20853;6804;118589;-73
2022/03/27 09:57:15;;;;;;;18.17;14.00;;;20.20;27.20;;;;;;20853;6804;117511;-74
2022/03/27 09:59:41;;;;;;;19.98;15.20;;;20.40;27.60;;;;;;20581;6804;306290;-72
2022/03/27 10:02:23;;;;;;;15.40;12.93;;;20.40;27.50;;;;;;20854;6804;118140;-74
2022/03/27 10:04:52;;;;;;;15.20;13.57;;;20.60;27.20;;;;;;20849;6804;117437;-73
2022/03/27 10:07:18;;;;;;;17.67;13.73;;;20.50;27.30;;;;;;20848;6804;118514;-75
2022/03/27 10:09:43;;;;;;;15.82;14.23;;;20.50;27.30;;;;;;20613;6804;340495;-73
2022/03/27 10:12:09;;;;;;;17.37;14.03;;;20.70;26.20;;;;;;20638;6804;277185;-74
2022/03/27 10:14:34;;;;;;;17.27;13.03;;;21.00;26.30;;;;;;20856;6804;117441;-70
2022/03/27 10:17:00;;;;;;;15.83;12.37;;;21.00;26.30;;;;;;20857;6804;117519;-74
2022/03/27 10:19:36;;;;;;;15.20;12.40;;;20.90;26.50;;;;;;20850;6802;117721;-71
2022/03/27 10:22:01;;;;;;;17.15;14.02;;;20.80;26.40;;;;;;20574;6803;335942;-74
2022/03/27 10:24:28;;;;;;;14.15;12.68;;;20.90;25.80;;;;;;20635;6803;335940;-71
2022/03/27 10:26:55;;;;;;;13.80;12.33;;;21.20;25.40;;;;;;20838;6803;118423;-69
2022/03/27 10:29:21;;;;;;;16.65;12.77;;;21.00;25.80;;;;;;20817;6803;117409;-71
2022/03/27 10:31:47;;;;;;;13.30;11.93;;;21.00;25.80;;;;;;20825;6803;127734;-78
2022/03/27 10:34:13;;;;;;;16.50;13.43;;;20.90;25.70;;;;;;20633;6803;324644;-73
2022/03/27 10:36:54;;;;;;;14.00;12.20;;;21.00;24.90;;;;;;20844;6803;119198;-70
2022/03/27 10:39:29;;;;;;;24.53;12.20;;;21.10;25.00;;;;;;20842;6803;117479;-72
2022/03/27 10:42:02;;;;;;;18.33;14.23;;;21.00;24.90;;;;;;20599;6803;306565;-70
2022/03/27 10:44:37;;;;;;;16.33;12.90;;;21.10;25.00;;;;;;20826;6803;117882;-74
2022/03/27 10:47:15;;;;;;;15.73;11.90;;;21.20;25.00;;;;;;20848;6803;117598;-73
2022/03/27 10:49:41;;;;;;;20.27;13.13;;;21.10;25.20;;;;;;20408;6803;120196;-70
2022/03/27 10:52:08;;;;;;;17.50;13.60;;;21.20;25.90;;;;;;20579;6803;340092;-79
2022/03/27 10:54:33;;;;;;;13.97;12.43;;;21.20;25.90;;;;;;20772;6803;118053;-71
2022/03/27 10:56:59;;;;;;;18.17;12.93;;;21.30;25.40;;;;;;20759;6804;118447;-71
2022/03/27 10:59:26;;;;;;;14.75;13.32;;;21.30;25.40;;;;;;20600;6804;335087;-71
2022/03/27 11:01:56;;;;;;;17.10;13.90;;;21.80;24.90;;;;;;20604;6804;293469;-73
2022/03/27 11:04:35;;;;;;;17.13;12.70;;;21.70;24.80;;;;;;20842;6804;118172;-72
2022/03/27 11:07:17;;;;;;;13.48;12.02;;;21.80;24.80;;;;;;20644;6804;283946;-70
2022/03/27 11:09:46;;;;;;;15.03;13.03;;;21.90;24.70;;;;;;20608;6804;311063;-72
2022/03/27 11:12:22;;;;;;;15.10;12.95;;;22.40;24.70;;;;;;20638;6804;305661;-70
2022/03/27 11:14:54;;;;;;;19.80;12.27;;;22.40;24.60;;;;;;20852;6804;119378;-72
2022/03/27 11:17:40;;;;;;;17.27;14.80;;;22.40;24.80;;;;;;20631;6804;295226;-75
2022/03/27 11:20:05;;;;;;;14.13;12.47;;;22.40;24.80;;;;;;20832;6804;117480;-72
2022/03/27 11:22:48;;;;;;;15.60;12.30;;;22.40;24.60;;;;;;20475;6804;117426;-71
2022/03/27 11:25:36;;;;;;;13.03;11.80;;;22.30;24.60;;;;;;20779;6804;118160;-71
2022/03/27 11:28:07;;;;;;;17.50;13.75;;;22.10;24.70;;;;;;20617;6804;306097;-68
2022/03/27 11:30:33;;;;;;;14.57;13.07;;;22.20;23.70;;;;;;20637;6802;277930;-71
2022/03/27 11:33:12;;;;;;;16.50;13.40;;;22.40;23.90;;;;;;20630;6803;307091;-73
2022/03/27 11:35:41;;;;;;;14.87;13.17;;;22.60;24.10;;;;;;20598;6803;307424;-72
2022/03/27 11:38:23;;;;;;;17.03;13.37;;;22.80;23.90;;;;;;20306;6805;305083;-74
2022/03/27 11:40:48;;;;;;;15.32;12.60;;;22.90;23.50;;;;;;20611;6803;278015;-68
2022/03/27 11:43:28;;;;;;;17.60;13.23;;;23.10;23.90;;;;;;20644;6803;300817;-69
2022/03/27 11:45:53;;;;;;;17.33;13.07;;;23.10;24.00;;;;;;20584;6803;288378;-71
2022/03/27 11:48:19;;;;;;;15.55;13.32;;;23.20;22.90;;;;;;20638;6803;286403;-70
2022/03/27 11:50:46;;;;;;;14.13;12.63;;;23.20;22.20;;;;;;20642;6803;278511;-72
2022/03/27 11:53:12;;;;;;;14.20;12.73;;;23.20;22.70;;;;;;20636;6803;335993;-73
2022/03/27 11:55:38;;;;;;;13.90;12.40;;;23.20;22.90;;;;;;20558;6803;312905;-73
2022/03/27 11:58:03;;;;;;;17.17;12.27;;;23.30;23.00;;;;;;20616;6803;281544;-72
2022/03/27 12:00:31;;;;;;;17.53;12.93;;;23.40;22.70;;;;;;20629;6803;278079;-71
2022/03/27 12:02:57;;;;;;;13.88;12.52;;;23.50;23.10;;;;;;20496;6803;277159;-72
2022/03/27 12:05:22;;;;;;;15.10;12.23;;;23.50;22.60;;;;;;20853;6803;118366;-72
2022/03/27 12:07:51;;;;;;;16.40;12.20;;;23.30;22.40;;;;;;20579;6804;307158;-70
2022/03/27 12:10:17;;;;;;;14.77;11.60;;;23.20;22.00;;;;;;20845;6804;121914;-70
2022/03/27 12:13:08;;;;;;;11.10;10.07;;;23.10;22.20;;;;;;20848;6804;123768;-69
2022/03/27 12:15:41;;;;;;;15.93;12.63;;;22.80;22.40;;;;;;20623;6804;277526;-70
2022/03/27 12:18:06;;;;;;;14.07;10.50;;;22.90;22.20;;;;;;20851;6804;118538;-70
2022/03/27 12:20:48;;;;;;;13.40;11.47;;;22.80;22.20;;;;;;20636;6804;306561;-70
2022/03/27 12:23:20;;;;;;;15.10;10.93;;;22.80;21.50;;;;;;20852;6804;118408;-69
2022/03/27 12:25:55;;;;;;;14.30;10.50;;;22.70;21.90;;;;;;20831;6804;117494;-70